Aviation Digital Data Service (ADDS)

Output produced by METARs form (1311 UTC 28 June 2016)
found at http://aviationweather.gov/adds/metars/
 
METAR text: GVAC 281300Z 04015KT 9999 BKN015 28/19 Q1017 NOSIG
Conditions at: GVAC (SAL ISL/AMILCAR , CV) observed 1300 UTC 28 June 2016
Temperature: 28.0°C (82°F)
Dewpoint: 19.0°C (66°F) [RH = 58%]
Pressure (altimeter): 30.03 inches Hg (1017.0 mb)
Winds: from the NE (40 degrees) at 17 MPH (15 knots; 7.8 m/s)
Visibility: 6 or more miles (10+ km)
Ceiling: 1500 feet AGL
Clouds: broken clouds at 1500 feet AGL
Weather: no significant weather observed at this time

METAR text: GVAC 281200Z 04015KT 9999 SCT015 28/20 Q1017 NOSIG
Conditions at: GVAC (SAL ISL/AMILCAR , CV) observed 1200 UTC 28 June 2016
Temperature: 28.0°C (82°F)
Dewpoint: 20.0°C (68°F) [RH = 62%]
Pressure (altimeter): 30.03 inches Hg (1017.0 mb)
Winds: from the NE (40 degrees) at 17 MPH (15 knots; 7.8 m/s)
Visibility: 6 or more miles (10+ km)
Ceiling: at least 12,000 feet AGL
Clouds: scattered clouds at 1500 feet AGL
Weather: no significant weather observed at this time

METAR text: GVAC 281100Z 05014KT 9999 BKN015 26/19 Q1017 NOSIG
Conditions at: GVAC (SAL ISL/AMILCAR , CV) observed 1100 UTC 28 June 2016
Temperature: 26.0°C (79°F)
Dewpoint: 19.0°C (66°F) [RH = 65%]
Pressure (altimeter): 30.03 inches Hg (1017.0 mb)
Winds: from the NE (50 degrees) at 16 MPH (14 knots; 7.3 m/s)
Visibility: 6 or more miles (10+ km)
Ceiling: 1500 feet AGL
Clouds: broken clouds at 1500 feet AGL
Weather: no significant weather observed at this time

METAR text: GVAC 281000Z 05013KT 9999 SCT015 25/20 Q1017 NOSIG
Conditions at: GVAC (SAL ISL/AMILCAR , CV) observed 1000 UTC 28 June 2016
Temperature: 25.0°C (77°F)
Dewpoint: 20.0°C (68°F) [RH = 74%]
Pressure (altimeter): 30.03 inches Hg (1017.0 mb)
Winds: from the NE (50 degrees) at 15 MPH (13 knots; 6.8 m/s)
Visibility: 6 or more miles (10+ km)
Ceiling: at least 12,000 feet AGL
Clouds: scattered clouds at 1500 feet AGL
Weather: no significant weather observed at this time

METAR text: GVAC 280900Z 04012KT 9999 SCT015 24/20 Q1017 NOSIG
Conditions at: GVAC (SAL ISL/AMILCAR , CV) observed 0900 UTC 28 June 2016
Temperature: 24.0°C (75°F)
Dewpoint: 20.0°C (68°F) [RH = 78%]
Pressure (altimeter): 30.03 inches Hg (1017.0 mb)
Winds: from the NE (40 degrees) at 14 MPH (12 knots; 6.2 m/s)
Visibility: 6 or more miles (10+ km)
Ceiling: at least 12,000 feet AGL
Clouds: scattered clouds at 1500 feet AGL
Weather: no significant weather observed at this time

METAR text: GVAC 280800Z 03011KT 9000 SCT015 23/20 Q1017 NOSIG
Conditions at: GVAC (SAL ISL/AMILCAR , CV) observed 0800 UTC 28 June 2016
Temperature: 23.0°C (73°F)
Dewpoint: 20.0°C (68°F) [RH = 83%]
Pressure (altimeter): 30.03 inches Hg (1017.0 mb)
Winds: from the NNE (30 degrees) at 13 MPH (11 knots; 5.7 m/s)
Visibility: 6 miles (9 km)
Ceiling: at least 12,000 feet AGL
Clouds: scattered clouds at 1500 feet AGL
Weather: no significant weather observed at this time

METAR text: GVAC 280700Z 04009KT 9000 FEW015 23/20 Q1016 NOSIG
Conditions at: GVAC (SAL ISL/AMILCAR , CV) observed 0700 UTC 28 June 2016
Temperature: 23.0°C (73°F)
Dewpoint: 20.0°C (68°F) [RH = 83%]
Pressure (altimeter): 30.00 inches Hg (1016.0 mb)
Winds: from the NE (40 degrees) at 10 MPH (9 knots; 4.7 m/s)
Visibility: 6 miles (9 km)
Ceiling: at least 12,000 feet AGL
Clouds: few clouds at 1500 feet AGL
Weather: no significant weather observed at this time

METAR text: GVAC 280600Z 03008KT 9000 FEW015 23/20 Q1016 NOSIG
Conditions at: GVAC (SAL ISL/AMILCAR , CV) observed 0600 UTC 28 June 2016
Temperature: 23.0°C (73°F)
Dewpoint: 20.0°C (68°F) [RH = 83%]
Pressure (altimeter): 30.00 inches Hg (1016.0 mb)
Winds: from the NNE (30 degrees) at 9 MPH (8 knots; 4.2 m/s)
Visibility: 6 miles (9 km)
Ceiling: at least 12,000 feet AGL
Clouds: few clouds at 1500 feet AGL
Weather: no significant weather observed at this time

METAR text: GVAC 280500Z 04006KT 9000 SCT015 23/20 Q1016 NOSIG
Conditions at: GVAC (SAL ISL/AMILCAR , CV) observed 0500 UTC 28 June 2016
Temperature: 23.0°C (73°F)
Dewpoint: 20.0°C (68°F) [RH = 83%]
Pressure (altimeter): 30.00 inches Hg (1016.0 mb)
Winds: from the NE (40 degrees) at 7 MPH (6 knots; 3.1 m/s)
Visibility: 6 miles (9 km)
Ceiling: at least 12,000 feet AGL
Clouds: scattered clouds at 1500 feet AGL
Weather: no significant weather observed at this time

METAR text: GVAC 280400Z 04008KT 9000 BKN015 23/20 Q1016 NOSIG
Conditions at: GVAC (SAL ISL/AMILCAR , CV) observed 0400 UTC 28 June 2016
Temperature: 23.0°C (73°F)
Dewpoint: 20.0°C (68°F) [RH = 83%]
Pressure (altimeter): 30.00 inches Hg (1016.0 mb)
Winds: from the NE (40 degrees) at 9 MPH (8 knots; 4.2 m/s)
Visibility: 6 miles (9 km)
Ceiling: 1500 feet AGL
Clouds: broken clouds at 1500 feet AGL
Weather: no significant weather observed at this time

METAR text: GVAC 280300Z 05009KT 9000 BKN015 24/20 Q1016 NOSIG
Conditions at: GVAC (SAL ISL/AMILCAR , CV) observed 0300 UTC 28 June 2016
Temperature: 24.0°C (75°F)
Dewpoint: 20.0°C (68°F) [RH = 78%]
Pressure (altimeter): 30.00 inches Hg (1016.0 mb)
Winds: from the NE (50 degrees) at 10 MPH (9 knots; 4.7 m/s)
Visibility: 6 miles (9 km)
Ceiling: 1500 feet AGL
Clouds: broken clouds at 1500 feet AGL
Weather: no significant weather observed at this time

METAR text: GVAC 280200Z 04009KT 9000 BKN015 24/20 Q1016 NOSIG
Conditions at: GVAC (SAL ISL/AMILCAR , CV) observed 0200 UTC 28 June 2016
Temperature: 24.0°C (75°F)
Dewpoint: 20.0°C (68°F) [RH = 78%]
Pressure (altimeter): 30.00 inches Hg (1016.0 mb)
Winds: from the NE (40 degrees) at 10 MPH (9 knots; 4.7 m/s)
Visibility: 6 miles (9 km)
Ceiling: 1500 feet AGL
Clouds: broken clouds at 1500 feet AGL
Weather: no significant weather observed at this time